Time;durP1;ratioP1;P1;durP2;ratioP2;P2;SDS_P1;SDS_P2;PMS_P1;PMS_P2;Temp;Humidity;BMP_temperature;BMP_pressure;BME280_temperature;BME280_humidity;BME280_pressure;Samples;Min_cycle;Max_cycle;Signal;HPM_P1;HPM_P2
2023/06/22 00:01:01;;;;;;;6.10;4.25;;;;;;;16.33;100.00;93569.94;5068923;28;20094;-74
2023/06/22 00:03:28;;;;;;;7.13;4.43;;;;;;;16.15;100.00;93553.56;5086033;28;20379;-74
2023/06/22 00:05:55;;;;;;;6.15;4.22;;;;;;;16.25;100.00;93561.50;5083219;28;20090;-73
2023/06/22 00:08:23;;;;;;;7.20;4.45;;;;;;;16.00;100.00;93523.03;5081457;28;20114;-73
2023/06/22 00:10:49;;;;;;;7.70;5.18;;;;;;;16.08;100.00;93540.00;5072115;28;20048;-73
2023/06/22 00:13:17;;;;;;;6.35;4.22;;;;;;;16.13;100.00;93560.81;5092030;28;20096;-73
2023/06/22 00:15:44;;;;;;;7.22;5.03;;;;;;;16.10;100.00;93559.47;5105870;28;20073;-73
2023/06/22 00:18:12;;;;;;;7.80;4.40;;;;;;;15.93;100.00;93540.53;5090097;28;20045;-74
2023/06/22 00:20:39;;;;;;;5.90;4.28;;;;;;;15.80;100.00;93513.09;5070492;28;20048;-74
2023/06/22 00:23:08;;;;;;;8.05;4.57;;;;;;;16.02;100.00;93546.91;5072607;28;20052;-74
2023/06/22 00:25:36;;;;;;;7.32;5.22;;;;;;;16.04;100.00;93542.28;5077331;28;20395;-74
2023/06/22 00:28:03;;;;;;;6.18;4.03;;;;;;;16.01;100.00;93530.59;5077913;28;20106;-74
2023/06/22 00:30:31;;;;;;;5.72;3.90;;;;;;;15.97;100.00;93529.47;5074862;28;20056;-74
2023/06/22 00:32:58;;;;;;;7.10;4.43;;;;;;;15.96;100.00;93542.69;5070818;28;20086;-74
2023/06/22 00:35:28;;;;;;;5.38;3.88;;;;;;;15.94;100.00;93545.50;5072277;28;20524;-74
2023/06/22 00:38:00;;;;;;;5.97;4.05;;;;;;;15.94;100.00;93539.53;5082244;28;20125;-74
2023/06/22 00:40:27;;;;;;;8.18;4.50;;;;;;;15.64;100.00;93492.13;5081178;28;20440;-74
2023/06/22 00:42:55;;;;;;;5.82;4.13;;;;;;;15.84;100.00;93534.94;5070394;28;20097;-73
2023/06/22 00:45:23;;;;;;;6.47;4.72;;;;;;;15.82;100.00;93548.13;5069514;28;20049;-74
2023/06/22 00:47:50;;;;;;;5.95;3.83;;;;;;;15.71;100.00;93538.59;5076447;28;20498;-74
2023/06/22 00:50:20;;;;;;;8.60;5.07;;;;;;;15.66;100.00;93543.69;5078266;28;20056;-74
2023/06/22 00:52:49;;;;;;;6.55;4.53;;;;;;;15.56;100.00;93521.00;5077005;28;20044;-74
2023/06/22 00:55:17;;;;;;;5.63;3.92;;;;;;;15.59;100.00;93526.50;5072631;28;20101;-74
2023/06/22 00:57:45;;;;;;;7.20;4.57;;;;;;;15.47;100.00;93515.41;5077417;28;20048;-75
2023/06/22 01:00:19;;;;;;;6.95;4.53;;;;;;;15.53;100.00;93529.22;5074532;28;20048;-74
2023/06/22 01:02:46;;;;;;;5.95;4.15;;;;;;;15.52;100.00;93535.44;5074247;28;20052;-75
2023/06/22 01:05:14;;;;;;;6.82;4.55;;;;;;;15.45;100.00;93543.31;5071599;28;20570;-75
2023/06/22 01:07:48;;;;;;;6.35;4.53;;;;;;;15.46;100.00;93547.50;5072992;28;20058;-75
2023/06/22 01:10:22;;;;;;;6.68;4.40;;;;;;;15.45;100.00;93546.72;5071514;28;20105;-75
2023/06/22 01:12:53;;;;;;;6.05;4.82;;;;;;;15.46;100.00;93531.97;5080542;28;21057;-75
2023/06/22 01:15:24;;;;;;;5.57;3.80;;;;;;;15.45;100.00;93533.78;5073406;28;20048;-74
2023/06/22 01:17:53;;;;;;;6.38;4.53;;;;;;;15.47;100.00;93542.09;5076344;28;20048;-75
2023/06/22 01:20:22;;;;;;;5.80;4.35;;;;;;;15.47;100.00;93542.09;5072884;28;20670;-75
2023/06/22 01:23:03;;;;;;;6.07;4.15;;;;;;;15.46;100.00;93545.69;5073717;28;20792;-74
2023/06/22 01:25:38;;;;;;;5.55;3.83;;;;;;;15.43;100.00;93540.19;5074201;28;20044;-74
2023/06/22 01:28:25;;;;;;;7.50;4.55;;;;;;;15.36;100.00;93541.13;5079125;28;20052;-75
2023/06/22 01:31:03;;;;;;;6.38;4.95;;;;;;;15.32;100.00;93540.00;5075796;28;20100;-74
2023/06/22 01:33:32;;;;;;;6.72;4.70;;;;;;;15.30;100.00;93541.25;5076030;28;20051;-74
2023/06/22 01:36:00;;;;;;;7.38;4.35;;;;;;;15.30;100.00;93549.00;5071143;28;20040;-75
2023/06/22 01:38:28;;;;;;;5.75;4.60;;;;;;;15.30;100.00;93557.56;5072844;28;20865;-75
2023/06/22 01:40:56;;;;;;;5.35;3.97;;;;;;;15.26;100.00;93540.13;5074904;28;20606;-75
2023/06/22 01:43:25;;;;;;;5.78;4.63;;;;;;;15.30;100.00;93546.44;5068665;28;20081;-74
2023/06/22 01:45:53;;;;;;;6.53;4.65;;;;;;;15.30;100.00;93546.44;5075160;28;20044;-74
2023/06/22 01:48:21;;;;;;;6.43;4.35;;;;;;;15.22;100.00;93550.16;5071146;28;20552;-75
2023/06/22 01:50:48;;;;;;;5.65;4.22;;;;;;;15.29;100.00;93560.38;5073078;28;20048;-75
2023/06/22 01:53:14;;;;;;;6.25;4.35;;;;;;;15.17;100.00;93543.09;5069393;28;20094;-75
2023/06/22 01:55:41;;;;;;;6.30;4.13;;;;;;;15.01;100.00;93515.34;5083468;28;20097;-75
2023/06/22 01:58:08;;;;;;;5.45;4.32;;;;;;;15.23;100.00;93552.53;5076947;28;20043;-75
2023/06/22 02:00:39;;;;;;;7.03;4.00;;;;;;;15.15;100.00;93552.91;5069639;28;20044;-74
2023/06/22 02:03:15;;;;;;;6.60;4.53;;;;;;;15.12;100.00;93557.72;5073746;28;20090;-75
2023/06/22 02:05:47;;;;;;;;;;;;;;;15.09;100.00;93570.09;5067892;28;20049;-75
2023/06/22 02:08:18;;;;;;;5.43;4.10;;;;;;;15.03;100.00;93586.53;5072874;28;19977;-73
2023/06/22 02:10:47;;;;;;;6.88;4.88;;;;;;;14.94;100.00;93586.13;5067654;28;20045;-74
2023/06/22 02:13:15;;;;;;;6.75;4.15;;;;;;;14.89;100.00;93578.25;5076380;28;20042;-74
2023/06/22 02:15:42;;;;;;;5.38;4.20;;;;;;;14.91;100.00;93583.19;5074868;28;20036;-74
2023/06/22 02:18:11;;;;;;;7.25;4.90;;;;;;;14.93;100.00;93566.44;5071422;28;20045;-75
2023/06/22 02:20:38;;;;;;;5.75;3.70;;;;;;;14.88;100.00;93568.13;5070497;28;20048;-74
2023/06/22 02:23:06;;;;;;;6.63;4.22;;;;;;;14.90;100.00;93568.69;5079901;28;20039;-74
2023/06/22 02:25:33;;;;;;;5.93;4.63;;;;;;;14.87;100.00;93571.72;5073978;28;20053;-73
2023/06/22 02:27:59;;;;;;;6.78;4.07;;;;;;;14.72;100.00;93551.47;5078572;28;20047;-74
2023/06/22 02:30:26;;;;;;;7.65;4.60;;;;;;;14.60;100.00;93539.34;5076347;28;20094;-74
2023/06/22 02:32:58;;;;;;;6.95;4.55;;;;;;;14.85;100.00;93571.19;5079888;28;20044;-74
2023/06/22 02:35:31;;;;;;;7.15;5.00;;;;;;;14.85;100.00;93571.94;5075073;28;20048;-75
2023/06/22 02:37:57;;;;;;;5.75;4.28;;;;;;;14.83;100.00;93573.97;5081530;28;20523;-74
2023/06/22 02:40:24;;;;;;;8.98;4.78;;;;;;;14.82;100.00;93562.84;5073713;28;20114;-74
2023/06/22 02:42:51;;;;;;;6.47;4.50;;;;;;;14.85;100.00;93574.53;5074159;28;20487;-74
2023/06/22 02:45:18;;;;;;;5.60;4.55;;;;;;;14.87;100.00;93575.13;5083397;28;20556;-74
2023/06/22 02:47:45;;;;;;;6.20;4.22;;;;;;;14.74;100.00;93546.84;5073443;28;20742;-74
2023/06/22 02:50:12;;;;;;;6.07;4.22;;;;;;;14.98;100.00;93562.38;5086176;28;20560;-74
2023/06/22 02:52:40;;;;;;;6.60;4.32;;;;;;;14.99;100.00;93556.97;5071755;28;20097;-74
2023/06/22 02:55:08;;;;;;;6.82;4.75;;;;;;;15.05;100.00;93558.63;5072018;28;20094;-74
2023/06/22 02:57:35;;;;;;;6.47;4.25;;;;;;;15.08;100.00;93567.75;5073770;28;20044;-74
2023/06/22 03:00:06;;;;;;;9.40;5.43;;;;;;;15.06;100.00;93562.03;5073671;28;20395;-74
2023/06/22 03:02:33;;;;;;;7.70;4.63;;;;;;;15.05;100.00;93563.81;5073078;28;20560;-74
2023/06/22 03:05:01;;;;;;;8.00;4.70;;;;;;;14.79;100.00;93529.69;5077266;28;20105;-74
2023/06/22 03:07:30;;;;;;;11.95;4.63;;;;;;;14.78;100.00;93532.50;5076248;28;20049;-74
2023/06/22 03:09:58;;;;;;;8.02;4.32;;;;;;;14.98;100.00;93578.69;5078001;28;20052;-73
2023/06/22 03:12:24;;;;;;;7.10;3.95;;;;;;;14.96;100.00;93588.47;5073468;28;20836;-74
2023/06/22 03:14:51;;;;;;;6.75;4.25;;;;;;;14.81;100.00;93570.81;5077440;28;20044;-78
2023/06/22 03:17:18;;;;;;;6.55;4.70;;;;;;;14.92;100.00;93590.75;5071510;28;20589;-74
2023/06/22 03:19:45;;;;;;;7.57;4.68;;;;;;;14.92;100.00;93588.16;5076764;28;20409;-74
2023/06/22 03:22:12;;;;;;;7.03;4.47;;;;;;;14.92;100.00;93600.28;5075437;28;20099;-74
2023/06/22 03:24:39;;;;;;;9.20;4.38;;;;;;;14.89;100.00;93588.59;5075053;28;20552;-74
2023/06/22 03:27:07;;;;;;;11.43;5.40;;;;;;;14.85;100.00;93573.75;5075784;28;20051;-74
2023/06/22 03:29:34;;;;;;;17.75;8.30;;;;;;;14.98;100.00;93596.78;5082745;28;20494;-74
2023/06/22 03:32:00;;;;;;;7.82;4.80;;;;;;;14.99;100.00;93598.34;5074109;28;20055;-74
2023/06/22 03:34:27;;;;;;;6.32;4.05;;;;;;;14.95;100.00;93589.50;5074357;28;20102;-74
2023/06/22 03:36:54;;;;;;;7.90;5.60;;;;;;;15.01;100.00;93611.88;5071404;28;20518;-74
2023/06/22 03:39:21;;;;;;;9.13;5.28;;;;;;;15.04;100.00;93611.41;5081602;28;20051;-74
2023/06/22 03:41:47;;;;;;;7.82;5.15;;;;;;;15.11;100.00;93608.69;5076100;28;20486;-74
2023/06/22 03:44:16;;;;;;;5.90;4.03;;;;;;;15.17;100.00;93619.91;5073105;28;20044;-74
2023/06/22 03:46:42;;;;;;;8.63;5.47;;;;;;;15.19;100.00;93615.31;5075149;28;20045;-75
2023/06/22 03:49:09;;;;;;;10.93;6.30;;;;;;;15.19;100.00;93621.28;5077509;28;20094;-74
2023/06/22 03:51:36;;;;;;;9.68;5.22;;;;;;;15.31;100.00;93630.81;5070203;28;20433;-74
2023/06/22 03:54:02;;;;;;;9.88;5.43;;;;;;;15.32;100.00;93615.06;5076501;28;20855;-75
2023/06/22 03:56:29;;;;;;;8.95;5.38;;;;;;;15.38;100.00;93613.38;5073390;28;20539;-74
2023/06/22 03:58:56;;;;;;;7.40;5.07;;;;;;;15.39;100.00;93612.34;5071565;28;20048;-74
2023/06/22 04:01:24;;;;;;;6.78;4.47;;;;;;;15.43;100.00;93617.84;5072323;28;20051;-74
2023/06/22 04:03:51;;;;;;;8.63;4.93;;;;;;;15.47;100.00;93603.44;5077653;28;20094;-74
2023/06/22 04:06:17;;;;;;;7.47;4.70;;;;;;;15.52;100.00;93602.75;5073010;28;20109;-74
2023/06/22 04:08:48;;;;;;;8.20;5.10;;;;;;;15.55;100.00;93595.28;5072446;28;20102;-74
2023/06/22 04:11:14;;;;;;;6.75;4.95;;;;;;;15.38;100.00;93556.44;5073150;28;20088;-74
2023/06/22 04:13:41;;;;;;;13.05;7.35;;;;;;;15.61;100.00;93596.19;5078973;28;20444;-74
2023/06/22 04:16:08;;;;;;;8.68;5.82;;;;;;;15.65;100.00;93605.06;5071939;28;20102;-74
2023/06/22 04:18:36;;;;;;;8.88;5.07;;;;;;;15.70;100.00;93610.31;5074644;28;20048;-74
2023/06/22 04:21:03;;;;;;;8.25;5.00;;;;;;;15.68;100.00;93601.22;5069913;28;20102;-74
2023/06/22 04:23:29;;;;;;;9.05;5.25;;;;;;;15.77;100.00;93602.41;5077394;28;20044;-73
2023/06/22 04:25:57;;;;;;;7.60;4.43;;;;;;;15.82;100.00;93597.34;5083916;28;20052;-74
2023/06/22 04:28:24;;;;;;;9.88;4.95;;;;;;;15.90;100.00;93593.59;5077677;28;20049;-74
2023/06/22 04:30:51;;;;;;;8.07;4.95;;;;;;;15.98;100.00;93587.28;5070624;28;20500;-73
2023/06/22 04:33:18;;;;;;;7.43;5.05;;;;;;;16.05;100.00;93597.50;5071075;28;20052;-73
2023/06/22 04:35:47;;;;;;;7.53;4.47;;;;;;;16.12;100.00;93603.31;5076618;28;20097;-73
2023/06/22 04:38:14;;;;;;;8.40;4.97;;;;;;;15.95;100.00;93567.78;5069136;28;20113;-73
2023/06/22 04:40:41;;;;;;;10.13;5.70;;;;;;;16.25;100.00;93607.41;5077692;28;20048;-74
2023/06/22 04:43:09;;;;;;;7.35;5.00;;;;;;;16.32;100.00;93605.44;5071658;28;20048;-74
2023/06/22 04:45:37;;;;;;;8.00;4.82;;;;;;;16.41;100.00;93604.03;5078825;28;20044;-74
2023/06/22 04:48:05;;;;;;;9.00;5.00;;;;;;;16.53;100.00;93609.13;5080227;28;20047;-74
2023/06/22 04:50:31;;;;;;;6.35;4.85;;;;;;;16.65;100.00;93608.25;5070664;28;20124;-74
2023/06/22 04:52:59;;;;;;;11.30;5.65;;;;;;;16.71;100.00;93612.47;5078226;28;20048;-74
2023/06/22 04:55:26;;;;;;;7.13;5.05;;;;;;;16.76;100.00;93604.00;5070899;28;20094;-74
2023/06/22 04:57:53;;;;;;;8.30;5.45;;;;;;;16.90;100.00;93613.00;5071173;28;20505;-74
2023/06/22 05:00:21;;;;;;;7.47;5.13;;;;;;;16.98;100.00;93613.63;5075629;28;20051;-74
2023/06/22 05:02:48;;;;;;;10.20;6.28;;;;;;;17.06;100.00;93611.44;5074168;28;20044;-74
2023/06/22 05:05:16;;;;;;;10.88;5.30;;;;;;;17.19;100.00;93610.31;5070535;28;20194;-74
2023/06/22 05:07:44;;;;;;;8.35;4.90;;;;;;;17.31;100.00;93612.00;5074748;28;20387;-74
2023/06/22 05:10:13;;;;;;;8.02;5.22;;;;;;;17.39;100.00;93600.41;5076503;28;20052;-75
2023/06/22 05:12:40;;;;;;;8.55;5.20;;;;;;;17.52;100.00;93596.63;5072550;28;20059;-74
2023/06/22 05:15:09;;;;;;;7.65;5.38;;;;;;;17.67;100.00;93604.59;5072923;28;20057;-74
2023/06/22 05:17:36;;;;;;;8.70;5.45;;;;;;;17.83;100.00;93609.97;5074058;28;20052;-74
2023/06/22 05:20:06;;;;;;;9.90;5.57;;;;;;;17.86;100.00;93596.47;5068265;28;20138;-74
2023/06/22 05:22:32;;;;;;;8.93;5.57;;;;;;;18.10;100.00;93599.56;5072077;28;20490;-73
2023/06/22 05:24:59;;;;;;;8.68;4.85;;;;;;;18.30;100.00;93604.16;5071794;28;20704;-75
2023/06/22 05:27:27;;;;;;;6.50;4.53;;;;;;;18.33;100.00;93582.06;5076582;28;20041;-73
2023/06/22 05:29:54;;;;;;;7.95;5.63;;;;;;;18.69;100.00;93602.34;5070098;28;20502;-72
2023/06/22 05:32:21;;;;;;;7.97;4.97;;;;;;;18.79;100.00;93602.41;5070877;28;20134;-72
2023/06/22 05:34:47;;;;;;;6.75;4.65;;;;;;;18.94;100.00;93604.31;5073972;28;20048;-74
2023/06/22 05:37:14;;;;;;;7.90;5.45;;;;;;;19.11;100.00;93602.63;5071496;28;20052;-74
2023/06/22 05:39:41;;;;;;;6.82;4.68;;;;;;;19.34;100.00;93612.63;5069540;28;20064;-75
2023/06/22 05:42:09;;;;;;;8.00;5.72;;;;;;;19.45;100.00;93607.47;5077378;28;20048;-74
2023/06/22 05:44:37;;;;;;;9.32;6.20;;;;;;;19.77;100.00;93622.16;5077146;28;20048;-74
2023/06/22 05:47:04;;;;;;;8.60;6.15;;;;;;;19.95;100.00;93631.31;5074333;28;20044;-74
2023/06/22 05:49:32;;;;;;;8.32;6.28;;;;;;;19.98;99.52;93627.44;5075772;28;20094;-74
2023/06/22 05:51:59;;;;;;;8.68;5.35;;;;;;;19.92;99.50;93628.44;5076953;28;20145;-74
2023/06/22 05:54:26;;;;;;;10.20;6.13;;;;;;;20.27;100.00;93626.97;5069563;28;20052;-73
2023/06/22 05:56:52;;;;;;;11.30;6.40;;;;;;;20.55;98.79;93636.09;5070980;28;20445;-74
2023/06/22 05:59:19;;;;;;;8.00;5.28;;;;;;;20.82;97.77;93631.63;5073592;28;20108;-73
2023/06/22 06:01:49;;;;;;;11.52;6.60;;;;;;;20.98;96.23;93621.97;5071772;28;20090;-74
2023/06/22 06:04:16;;;;;;;13.18;7.90;;;;;;;21.27;95.91;93626.59;5075045;28;20056;-74
2023/06/22 06:06:43;;;;;;;11.38;6.00;;;;;;;21.41;95.39;93621.59;5068421;28;20539;-74
2023/06/22 06:22:37;;;;;;;16.53;9.10;;;;;;;24.38;86.54;93612.59;5107412;27;20849;-74
2023/06/22 06:25:04;;;;;;;18.80;8.95;;;;;;;24.26;86.01;93607.00;5106733;28;20084;-74
2023/06/22 06:27:31;;;;;;;18.85;8.93;;;;;;;24.22;87.24;93606.00;5110999;28;20446;-73
2023/06/22 06:29:58;;;;;;;22.38;9.82;;;;;;;24.48;85.07;93608.25;5105324;28;20515;-73
2023/06/22 06:32:25;;;;;;;19.33;9.35;;;;;;;24.70;84.59;93599.72;5111962;28;20563;-73
2023/06/22 06:34:51;;;;;;;20.48;9.95;;;;;;;24.77;83.05;93608.00;5109924;28;20051;-73
2023/06/22 06:37:19;;;;;;;22.90;9.35;;;;;;;24.53;82.72;93605.53;5115202;27;20052;-73
2023/06/22 06:39:47;;;;;;;18.40;9.07;;;;;;;24.34;83.46;93610.84;5105700;28;20044;-73
2023/06/22 06:42:13;;;;;;;18.02;8.13;;;;;;;24.77;84.31;93613.25;5106460;28;20462;-73
2023/06/22 06:44:40;;;;;;;15.48;7.57;;;;;;;25.13;80.03;93608.50;5106007;28;20048;-73
2023/06/22 06:47:07;;;;;;;20.40;8.13;;;;;;;25.56;79.92;93610.84;5106852;28;20059;-73
2023/06/22 06:49:34;;;;;;;15.30;8.73;;;;;;;25.71;78.73;93603.69;5112073;28;20043;-73
2023/06/22 06:52:01;;;;;;;15.65;8.45;;;;;;;26.02;75.52;93580.13;5110129;27;20052;-73
2023/06/22 06:54:28;;;;;;;15.60;7.57;;;;;;;26.44;73.48;93605.53;5107014;27;20390;-73
2023/06/22 06:56:56;;;;;;;14.32;8.55;;;;;;;26.66;74.07;93606.59;5113489;28;20043;-73
2023/06/22 06:59:22;;;;;;;14.13;8.05;;;;;;;26.65;72.00;93597.13;5110551;28;20048;-73
2023/06/22 07:01:49;;;;;;;13.93;6.43;;;;;;;26.57;67.85;93606.56;5107034;28;20093;-73
2023/06/22 07:04:16;;;;;;;14.40;6.90;;;;;;;26.35;67.19;93612.59;5106306;27;20508;-73
2023/06/22 07:06:43;;;;;;;13.05;6.93;;;;;;;26.50;70.63;93603.53;5111573;27;20100;-73
2023/06/22 07:09:09;;;;;;;15.07;6.93;;;;;;;26.46;69.70;93611.28;5106904;28;20044;-74
2023/06/22 07:11:36;;;;;;;13.63;7.25;;;;;;;26.58;68.94;93607.31;5105368;28;20048;-74
2023/06/22 07:14:04;;;;;;;9.57;5.85;;;;;;;26.02;68.64;93605.66;5106407;28;20052;-74
2023/06/22 07:16:31;;;;;;;15.95;6.00;;;;;;;26.15;68.75;93614.59;5106059;28;20052;-74
2023/06/22 07:18:58;;;;;;;14.38;7.05;;;;;;;26.08;72.35;93609.75;5104947;28;20477;-73
2023/06/22 07:21:24;;;;;;;12.82;6.15;;;;;;;26.17;71.57;93614.28;5103250;28;20056;-73
2023/06/22 07:23:51;;;;;;;15.57;6.85;;;;;;;26.32;69.04;93607.91;5098167;28;20506;-73
2023/06/22 07:26:18;;;;;;;11.85;6.55;;;;;;;26.12;72.35;93608.09;5097815;28;20109;-74
2023/06/22 07:28:45;;;;;;;10.00;6.18;;;;;;;26.27;70.41;93614.09;5101159;28;20044;-74
2023/06/22 07:31:13;;;;;;;11.85;6.28;;;;;;;26.65;70.76;93616.34;5093651;28;20056;-74
2023/06/22 07:33:39;;;;;;;14.70;7.00;;;;;;;26.62;70.06;93610.91;5103124;28;20135;-74
2023/06/22 07:36:07;;;;;;;19.30;7.10;;;;;;;27.07;70.75;93616.13;5103404;28;20048;-74
2023/06/22 07:38:35;;;;;;;10.93;6.72;;;;;;;27.15;68.91;93619.88;5096382;28;20048;-74
2023/06/22 07:41:02;;;;;;;12.60;6.57;;;;;;;27.03;70.26;93614.41;5098335;28;20423;-75
2023/06/22 07:43:29;;;;;;;12.55;6.68;;;;;;;26.32;70.17;93623.72;5097280;28;20067;-74
2023/06/22 07:45:56;;;;;;;14.77;7.13;;;;;;;26.38;70.71;93615.41;5097815;28;20061;-74
2023/06/22 07:48:24;;;;;;;10.18;5.93;;;;;;;26.74;70.97;93619.03;5099007;28;20051;-74
2023/06/22 07:50:52;;;;;;;11.73;6.90;;;;;;;27.01;69.50;93611.28;5096303;28;20105;-74
2023/06/22 07:53:19;;;;;;;9.13;5.88;;;;;;;27.13;71.71;93614.13;5093479;28;20052;-74
2023/06/22 07:55:46;;;;;;;14.63;6.95;;;;;;;27.06;70.27;93617.22;5092221;28;20451;-73
2023/06/22 07:58:12;;;;;;;9.00;5.72;;;;;;;26.58;71.61;93613.38;5090534;28;20043;-74
2023/06/22 08:00:39;;;;;;;7.90;5.57;;;;;;;26.57;75.74;93618.94;5093753;28;20500;-73
2023/06/22 08:03:07;;;;;;;10.95;7.07;;;;;;;27.11;73.98;93608.38;5093163;28;20052;-73
2023/06/22 08:05:35;;;;;;;10.27;6.20;;;;;;;27.25;68.90;93612.78;5092107;28;20053;-73
2023/06/22 08:08:01;;;;;;;8.27;5.38;;;;;;;27.81;69.07;93609.69;5097001;28;20048;-73
2023/06/22 08:10:28;;;;;;;7.93;5.07;;;;;;;28.09;69.60;93591.66;5092885;28;20044;-74
2023/06/22 08:12:55;;;;;;;9.80;5.32;;;;;;;28.58;67.49;93595.19;5094044;28;20040;-74
2023/06/22 08:15:22;;;;;;;11.60;5.75;;;;;;;29.14;65.94;93600.50;5093808;28;20044;-74
2023/06/22 08:17:49;;;;;;;9.55;5.80;;;;;;;29.62;64.77;93597.03;5090608;28;20050;-74
2023/06/22 08:20:15;;;;;;;8.38;5.30;;;;;;;29.99;63.28;93591.97;5090486;28;20052;-74
2023/06/22 08:22:44;;;;;;;8.25;4.90;;;;;;;29.12;57.99;93593.97;5089691;28;20051;-74
2023/06/22 08:25:13;;;;;;;8.15;4.72;;;;;;;29.20;60.22;93598.44;5094039;28;20546;-74
2023/06/22 08:27:39;;;;;;;7.95;4.22;;;;;;;28.64;57.73;93594.72;5091550;28;20603;-74
2023/06/22 08:30:07;;;;;;;8.77;5.13;;;;;;;28.89;56.92;93597.66;5093960;28;20501;-74
2023/06/22 08:32:34;;;;;;;6.85;4.78;;;;;;;28.53;61.61;93588.22;5091736;28;20039;-74
2023/06/22 08:35:01;;;;;;;7.97;5.05;;;;;;;28.96;61.17;93586.56;5093140;28;20047;-74
2023/06/22 08:37:31;;;;;;;7.20;4.43;;;;;;;28.08;58.74;93584.03;5095058;28;20064;-74
2023/06/22 08:40:00;;;;;;;7.15;4.70;;;;;;;29.01;60.82;93580.34;5089375;28;20522;-74
2023/06/22 08:42:27;;;;;;;6.30;4.53;;;;;;;29.39;55.38;93587.47;5091160;28;20135;-74
2023/06/22 08:44:54;;;;;;;7.35;4.93;;;;;;;29.79;59.56;93588.19;5093828;28;20448;-75
2023/06/22 08:47:21;;;;;;;7.70;4.47;;;;;;;30.41;58.84;93585.88;5093115;28;20526;-75
2023/06/22 08:49:48;;;;;;;6.80;4.50;;;;;;;30.80;56.12;93583.78;5091231;28;20048;-75
2023/06/22 08:52:14;;;;;;;7.50;4.93;;;;;;;30.97;56.38;93589.97;5091414;28;20586;-75
2023/06/22 08:54:41;;;;;;;7.15;4.97;;;;;;;31.45;54.79;93592.22;5091956;28;20096;-74
2023/06/22 08:57:09;;;;;;;8.25;4.70;;;;;;;31.80;53.24;93585.66;5091007;28;20056;-75
2023/06/22 08:59:36;;;;;;;7.25;4.80;;;;;;;31.92;52.56;93582.22;5091612;28;20546;-75
2023/06/22 09:02:03;;;;;;;6.90;4.65;;;;;;;31.84;54.03;93581.97;5090402;28;20055;-75
2023/06/22 09:04:34;;;;;;;6.68;4.50;;;;;;;31.95;50.57;93577.00;5089439;28;20040;-75
2023/06/22 09:07:00;;;;;;;6.18;4.40;;;;;;;30.88;52.29;93576.81;5094320;28;20493;-75
2023/06/22 09:09:27;;;;;;;7.13;4.43;;;;;;;31.27;55.92;93573.84;5097161;28;20089;-75
2023/06/22 09:11:54;;;;;;;6.15;4.60;;;;;;;31.67;55.31;93571.63;5089840;28;20129;-75
2023/06/22 09:14:22;;;;;;;7.47;4.95;;;;;;;30.75;56.55;93568.06;5092426;28;20074;-75
2023/06/22 09:16:49;;;;;;;6.82;5.07;;;;;;;29.59;57.42;93564.81;5090719;28;20054;-75
2023/06/22 09:19:16;;;;;;;5.90;4.68;;;;;;;30.16;60.02;93555.84;5091699;28;20054;-75
2023/06/22 09:21:42;;;;;;;6.68;4.57;;;;;;;30.73;55.88;93562.31;5090602;28;20852;-75
2023/06/22 09:24:09;;;;;;;10.15;5.38;;;;;;;30.87;56.68;93558.59;5091304;28;20063;-75
2023/06/22 09:26:36;;;;;;;7.85;5.28;;;;;;;28.97;59.08;93576.78;5093435;28;20055;-75
2023/06/22 09:29:05;;;;;;;8.38;5.10;;;;;;;28.83;62.01;93545.25;5091573;28;20059;-75
2023/06/22 09:31:33;;;;;;;6.32;4.82;;;;;;;29.30;61.26;93576.94;5089360;28;20054;-75
2023/06/22 09:34:00;;;;;;;8.50;5.18;;;;;;;29.77;56.96;93546.16;5089070;28;20513;-75
2023/06/22 09:36:27;;;;;;;8.55;5.00;;;;;;;30.64;58.40;93569.56;5088649;28;20052;-75
2023/06/22 09:38:58;;;;;;;7.30;4.93;;;;;;;31.09;56.23;93570.63;5089062;28;20040;-75
2023/06/22 09:41:25;;;;;;;7.65;5.03;;;;;;;31.33;56.76;93538.03;5088027;28;20044;-75
2023/06/22 09:43:52;;;;;;;9.50;4.70;;;;;;;31.16;55.15;93570.88;5099066;28;20105;-75
2023/06/22 09:46:21;;;;;;;6.82;4.63;;;;;;;31.80;56.11;93575.03;5092164;28;20504;-75
2023/06/22 09:48:49;;;;;;;6.75;4.93;;;;;;;32.12;53.27;93565.31;5090603;28;20040;-75
2023/06/22 09:51:16;;;;;;;6.93;3.90;;;;;;;31.21;52.81;93572.53;5089421;28;20047;-76
2023/06/22 09:53:43;;;;;;;7.82;4.97;;;;;;;30.88;55.87;93568.09;5094013;28;20435;-75
2023/06/22 09:56:14;;;;;;;6.68;4.65;;;;;;;30.31;52.19;93570.38;5090663;28;20056;-75
2023/06/22 09:58:41;;;;;;;6.65;4.78;;;;;;;31.20;54.35;93571.72;5088124;28;20055;-75
2023/06/22 10:01:08;;;;;;;5.20;3.55;;;;;;;31.10;50.75;93540.34;5100512;28;20043;-75
2023/06/22 10:03:34;;;;;;;5.85;4.03;;;;;;;31.41;50.83;93573.53;5097959;28;20043;-75
2023/06/22 10:06:03;;;;;;;4.93;3.90;;;;;;;31.38;51.72;93552.19;5099899;28;20047;-75
2023/06/22 10:08:30;;;;;;;5.65;3.55;;;;;;;31.38;48.76;93568.88;5088478;28;20044;-75
2023/06/22 10:10:56;;;;;;;5.57;4.00;;;;;;;31.39;46.69;93569.66;5090624;28;20044;-75
2023/06/22 10:13:23;;;;;;;4.70;3.47;;;;;;;30.73;47.10;93557.00;5090727;28;20048;-76
2023/06/22 10:15:51;;;;;;;5.75;3.70;;;;;;;29.65;48.09;93570.69;5090772;28;20597;-74
2023/06/22 10:18:18;;;;;;;4.97;3.60;;;;;;;30.12;49.85;93563.66;5089596;28;20055;-75
2023/06/22 10:20:48;;;;;;;5.63;3.45;;;;;;;30.16;49.86;93567.22;5087920;28;20047;-75
2023/06/22 10:23:16;;;;;;;4.70;3.20;;;;;;;30.60;49.18;93556.19;5091825;28;20047;-75
2023/06/22 10:25:42;;;;;;;5.75;4.05;;;;;;;31.37;48.14;93555.97;5090247;28;20052;-75
2023/06/22 10:28:09;;;;;;;6.03;3.92;;;;;;;31.00;49.91;93551.41;5087713;28;20105;-75
2023/06/22 10:30:36;;;;;;;6.03;3.65;;;;;;;31.12;49.31;93551.41;5094092;28;20413;-74
2023/06/22 10:33:03;;;;;;;5.45;3.55;;;;;;;31.31;48.91;93552.75;5090190;28;20040;-75
2023/06/22 10:35:29;;;;;;;6.18;3.92;;;;;;;30.74;47.20;93547.19;5094159;28;20101;-75
2023/06/22 10:37:56;;;;;;;4.57;3.17;;;;;;;31.37;47.99;93548.00;5089514;28;20741;-75
2023/06/22 10:40:24;;;;;;;6.05;3.95;;;;;;;31.14;45.82;93553.72;5087349;28;20101;-75
2023/06/22 10:42:51;;;;;;;5.57;3.25;;;;;;;30.46;47.72;93548.56;5096049;28;20056;-74
2023/06/22 10:45:18;;;;;;;5.43;3.30;;;;;;;29.78;50.68;93546.94;5089232;28;20587;-74
2023/06/22 10:47:44;;;;;;;6.07;3.72;;;;;;;29.87;48.51;93545.00;5086597;28;20048;-74
2023/06/22 10:50:12;;;;;;;5.45;3.50;;;;;;;29.95;47.30;93540.72;5094965;28;20044;-74
2023/06/22 10:52:39;;;;;;;5.78;3.35;;;;;;;30.07;48.51;93543.41;5092783;28;20249;-75
2023/06/22 10:55:06;;;;;;;4.72;3.40;;;;;;;30.82;48.94;93541.00;5094680;28;20496;-75
2023/06/22 10:57:34;;;;;;;7.18;3.53;;;;;;;30.07;48.92;93546.06;5093886;28;20052;-75
2023/06/22 11:00:01;;;;;;;6.00;3.47;;;;;;;30.83;49.16;93536.47;5094485;28;20070;-75
2023/06/22 11:02:28;;;;;;;6.00;2.97;;;;;;;30.06;48.53;93519.91;5091067;28;20052;-75
2023/06/22 11:04:55;;;;;;;3.60;2.72;;;;;;;30.89;49.62;93545.75;5097452;28;20043;-75
2023/06/22 11:07:21;;;;;;;5.50;3.42;;;;;;;30.33;49.16;93539.00;5096482;28;20052;-75
2023/06/22 11:09:48;;;;;;;4.57;3.15;;;;;;;30.27;49.69;93543.75;5091369;28;20135;-75
2023/06/22 11:12:15;;;;;;;6.22;3.58;;;;;;;30.70;48.10;93525.06;5093478;28;20048;-75
2023/06/22 11:14:43;;;;;;;5.53;3.92;;;;;;;30.96;48.98;93539.91;5095357;28;20048;-75
2023/06/22 11:17:10;;;;;;;5.50;3.30;;;;;;;30.48;48.63;93527.78;5092277;28;20078;-75
2023/06/22 11:19:36;;;;;;;5.60;4.18;;;;;;;30.14;49.11;93527.03;5093029;28;20447;-74
2023/06/22 11:22:03;;;;;;;4.32;3.13;;;;;;;30.51;48.76;93526.34;5094400;28;20582;-75
2023/06/22 11:24:30;;;;;;;7.00;4.20;;;;;;;31.26;48.65;93529.06;5100920;28;20101;-75
2023/06/22 11:26:56;;;;;;;5.28;3.40;;;;;;;30.88;47.13;93530.94;5095865;28;20440;-75
2023/06/22 11:29:23;;;;;;;5.18;3.05;;;;;;;30.67;48.03;93529.91;5098794;28;20052;-75
2023/06/22 11:31:51;;;;;;;5.32;2.97;;;;;;;30.26;47.19;93529.72;5101139;28;20052;-75
2023/06/22 11:34:18;;;;;;;6.82;3.78;;;;;;;30.37;48.63;93521.34;5095963;28;20394;-75
2023/06/22 11:36:47;;;;;;;5.65;3.55;;;;;;;30.10;49.94;93507.59;5092395;28;20048;-75
2023/06/22 11:39:14;;;;;;;5.88;3.05;;;;;;;29.80;48.96;93513.72;5093465;28;20055;-74
2023/06/22 11:41:41;;;;;;;4.25;3.28;;;;;;;30.45;48.78;93507.22;5093596;28;20040;-75